sensor_id;sensor_type;location;lat;lon;timestamp;temperature;humidity
20524;DHT22;10420;48.542;12.270;2022-07-03T00:02:21;13.70;99.90
20524;DHT22;10420;48.542;12.270;2022-07-03T00:07:22;13.70;99.90
20524;DHT22;10420;48.542;12.270;2022-07-03T00:12:23;13.60;99.90
20524;DHT22;10420;48.542;12.270;2022-07-03T00:17:23;13.40;99.90
20524;DHT22;10420;48.542;12.270;2022-07-03T00:22:25;13.50;99.90
20524;DHT22;10420;48.542;12.270;2022-07-03T00:27:26;13.50;99.90
20524;DHT22;10420;48.542;12.270;2022-07-03T00:32:27;13.70;99.90
20524;DHT22;10420;48.542;12.270;2022-07-03T00:37:28;13.70;99.90
20524;DHT22;10420;48.542;12.270;2022-07-03T00:42:30;13.80;99.90
20524;DHT22;10420;48.542;12.270;2022-07-03T00:47:35;13.80;99.90
20524;DHT22;10420;48.542;12.270;2022-07-03T00:52:37;13.80;99.90
20524;DHT22;10420;48.542;12.270;2022-07-03T00:57:45;13.90;99.90
20524;DHT22;10420;48.542;12.270;2022-07-03T01:08:08;14.00;99.90
20524;DHT22;10420;48.542;12.270;2022-07-03T01:13:18;14.00;99.90
20524;DHT22;10420;48.542;12.270;2022-07-03T01:28:38;13.90;99.90
20524;DHT22;10420;48.542;12.270;2022-07-03T01:33:41;14.00;99.90
20524;DHT22;10420;48.542;12.270;2022-07-03T01:38:42;14.00;99.90
20524;DHT22;10420;48.542;12.270;2022-07-03T01:43:55;14.00;99.90
20524;DHT22;10420;48.542;12.270;2022-07-03T01:48:57;14.10;99.90
20524;DHT22;10420;48.542;12.270;2022-07-03T01:53:59;14.00;99.90
20524;DHT22;10420;48.542;12.270;2022-07-03T01:59:00;14.00;99.90
20524;DHT22;10420;48.542;12.270;2022-07-03T02:04:33;14.00;99.90
20524;DHT22;10420;48.542;12.270;2022-07-03T02:10:03;14.00;99.90
20524;DHT22;10420;48.542;12.270;2022-07-03T02:15:07;13.90;99.90
20524;DHT22;10420;48.542;12.270;2022-07-03T02:20:09;13.90;99.90
20524;DHT22;10420;48.542;12.270;2022-07-03T02:25:22;13.90;99.90
20524;DHT22;10420;48.542;12.270;2022-07-03T02:30:24;13.80;99.90
20524;DHT22;10420;48.542;12.270;2022-07-03T02:35:29;13.80;99.90
20524;DHT22;10420;48.542;12.270;2022-07-03T02:40:45;13.80;99.90
20524;DHT22;10420;48.542;12.270;2022-07-03T02:45:57;13.70;99.90
20524;DHT22;10420;48.542;12.270;2022-07-03T02:51:05;13.60;99.90
20524;DHT22;10420;48.542;12.270;2022-07-03T03:01:57;13.50;99.90
20524;DHT22;10420;48.542;12.270;2022-07-03T03:07:26;13.50;99.90
20524;DHT22;10420;48.542;12.270;2022-07-03T03:12:34;13.50;99.90
20524;DHT22;10420;48.542;12.270;2022-07-03T03:17:42;13.10;99.90
20524;DHT22;10420;48.542;12.270;2022-07-03T03:22:58;13.20;99.90
20524;DHT22;10420;48.542;12.270;2022-07-03T03:27:59;13.20;99.90
20524;DHT22;10420;48.542;12.270;2022-07-03T03:33:00;13.30;99.90
20524;DHT22;10420;48.542;12.270;2022-07-03T03:38:01;13.10;99.90
20524;DHT22;10420;48.542;12.270;2022-07-03T03:43:02;13.10;99.90
20524;DHT22;10420;48.542;12.270;2022-07-03T03:48:04;13.10;99.90
20524;DHT22;10420;48.542;12.270;2022-07-03T03:53:04;13.10;99.90
20524;DHT22;10420;48.542;12.270;2022-07-03T03:58:05;13.20;99.90
20524;DHT22;10420;48.542;12.270;2022-07-03T04:03:06;13.30;99.90
20524;DHT22;10420;48.542;12.270;2022-07-03T04:08:06;13.40;99.90
20524;DHT22;10420;48.542;12.270;2022-07-03T04:13:07;13.30;99.90
20524;DHT22;10420;48.542;12.270;2022-07-03T04:18:08;13.30;99.90
20524;DHT22;10420;48.542;12.270;2022-07-03T04:23:08;13.70;99.90
20524;DHT22;10420;48.542;12.270;2022-07-03T04:28:10;13.40;99.90
20524;DHT22;10420;48.542;12.270;2022-07-03T04:33:11;13.60;99.90
20524;DHT22;10420;48.542;12.270;2022-07-03T04:38:11;14.00;99.90
20524;DHT22;10420;48.542;12.270;2022-07-03T04:43:12;14.10;99.90
20524;DHT22;10420;48.542;12.270;2022-07-03T04:48:13;14.50;99.90
20524;DHT22;10420;48.542;12.270;2022-07-03T04:53:13;14.80;99.90
20524;DHT22;10420;48.542;12.270;2022-07-03T04:58:14;14.60;99.90
20524;DHT22;10420;48.542;12.270;2022-07-03T05:03:15;15.00;99.90
20524;DHT22;10420;48.542;12.270;2022-07-03T05:08:15;15.70;99.90
20524;DHT22;10420;48.542;12.270;2022-07-03T05:13:16;16.20;99.90
20524;DHT22;10420;48.542;12.270;2022-07-03T05:18:17;16.30;99.90
20524;DHT22;10420;48.542;12.270;2022-07-03T05:23:17;16.70;99.90
20524;DHT22;10420;48.542;12.270;2022-07-03T05:28:18;16.70;99.90
20524;DHT22;10420;48.542;12.270;2022-07-03T05:33:18;17.00;99.90
20524;DHT22;10420;48.542;12.270;2022-07-03T05:38:20;17.10;99.90
20524;DHT22;10420;48.542;12.270;2022-07-03T05:43:39;17.70;99.90
20524;DHT22;10420;48.542;12.270;2022-07-03T05:48:40;18.20;99.90
20524;DHT22;10420;48.542;12.270;2022-07-03T05:53:40;18.40;99.90
20524;DHT22;10420;48.542;12.270;2022-07-03T05:58:41;18.80;99.90
20524;DHT22;10420;48.542;12.270;2022-07-03T06:03:42;19.10;99.90
20524;DHT22;10420;48.542;12.270;2022-07-03T06:08:42;19.70;99.90
20524;DHT22;10420;48.542;12.270;2022-07-03T06:13:43;19.90;99.90
20524;DHT22;10420;48.542;12.270;2022-07-03T06:18:43;19.90;99.90
20524;DHT22;10420;48.542;12.270;2022-07-03T06:23:44;20.30;99.90
20524;DHT22;10420;48.542;12.270;2022-07-03T06:28:45;20.70;99.90
20524;DHT22;10420;48.542;12.270;2022-07-03T06:33:45;21.20;99.90
20524;DHT22;10420;48.542;12.270;2022-07-03T06:38:46;21.00;99.90
20524;DHT22;10420;48.542;12.270;2022-07-03T06:43:47;21.60;99.90
20524;DHT22;10420;48.542;12.270;2022-07-03T06:48:47;21.90;99.90
20524;DHT22;10420;48.542;12.270;2022-07-03T06:53:48;22.10;99.90
20524;DHT22;10420;48.542;12.270;2022-07-03T06:58:49;22.50;99.90
20524;DHT22;10420;48.542;12.270;2022-07-03T07:03:49;22.20;99.90
20524;DHT22;10420;48.542;12.270;2022-07-03T07:08:50;22.80;99.90
20524;DHT22;10420;48.542;12.270;2022-07-03T07:13:51;23.10;99.90
20524;DHT22;10420;48.542;12.270;2022-07-03T07:18:51;23.10;99.90
20524;DHT22;10420;48.542;12.270;2022-07-03T07:23:52;24.00;99.90
20524;DHT22;10420;48.542;12.270;2022-07-03T07:28:53;24.00;99.90
20524;DHT22;10420;48.542;12.270;2022-07-03T07:33:53;24.70;99.90
20524;DHT22;10420;48.542;12.270;2022-07-03T07:38:54;24.70;99.90
20524;DHT22;10420;48.542;12.270;2022-07-03T07:43:55;24.90;99.90
20524;DHT22;10420;48.542;12.270;2022-07-03T07:48:55;25.20;99.90
20524;DHT22;10420;48.542;12.270;2022-07-03T07:53:56;25.80;99.90
20524;DHT22;10420;48.542;12.270;2022-07-03T07:58:57;25.60;99.90
20524;DHT22;10420;48.542;12.270;2022-07-03T08:03:58;26.10;99.90
20524;DHT22;10420;48.542;12.270;2022-07-03T08:09:17;26.30;99.90
20524;DHT22;10420;48.542;12.270;2022-07-03T08:14:18;26.20;99.90
20524;DHT22;10420;48.542;12.270;2022-07-03T08:19:19;26.80;99.90
20524;DHT22;10420;48.542;12.270;2022-07-03T08:24:20;27.20;99.90
20524;DHT22;10420;48.542;12.270;2022-07-03T08:29:21;26.50;99.90
20524;DHT22;10420;48.542;12.270;2022-07-03T08:34:22;27.10;99.90
20524;DHT22;10420;48.542;12.270;2022-07-03T08:39:22;27.70;99.90
20524;DHT22;10420;48.542;12.270;2022-07-03T08:44:24;28.10;99.90
20524;DHT22;10420;48.542;12.270;2022-07-03T08:49:25;28.60;99.90
20524;DHT22;10420;48.542;12.270;2022-07-03T08:54:26;28.20;99.90
20524;DHT22;10420;48.542;12.270;2022-07-03T08:59:38;28.40;99.90
20524;DHT22;10420;48.542;12.270;2022-07-03T09:04:38;28.50;99.90
20524;DHT22;10420;48.542;12.270;2022-07-03T09:09:40;28.60;99.90
20524;DHT22;10420;48.542;12.270;2022-07-03T09:14:40;28.90;99.90
20524;DHT22;10420;48.542;12.270;2022-07-03T09:19:47;29.30;99.90
20524;DHT22;10420;48.542;12.270;2022-07-03T09:24:53;27.40;99.90
20524;DHT22;10420;48.542;12.270;2022-07-03T09:29:59;28.00;99.90
20524;DHT22;10420;48.542;12.270;2022-07-03T09:35:24;28.60;99.90
20524;DHT22;10420;48.542;12.270;2022-07-03T09:40:27;29.60;99.90
20524;DHT22;10420;48.542;12.270;2022-07-03T09:50:49;29.70;99.90
20524;DHT22;10420;48.542;12.270;2022-07-03T09:55:56;29.30;99.90
20524;DHT22;10420;48.542;12.270;2022-07-03T10:01:15;30.10;99.90
20524;DHT22;10420;48.542;12.270;2022-07-03T10:06:16;30.30;99.90
20524;DHT22;10420;48.542;12.270;2022-07-03T10:11:17;29.80;99.90
20524;DHT22;10420;48.542;12.270;2022-07-03T10:16:18;30.20;99.90
20524;DHT22;10420;48.542;12.270;2022-07-03T10:21:19;30.60;99.90
20524;DHT22;10420;48.542;12.270;2022-07-03T10:26:20;30.40;99.90
20524;DHT22;10420;48.542;12.270;2022-07-03T10:31:21;30.80;99.90
20524;DHT22;10420;48.542;12.270;2022-07-03T10:36:22;30.70;99.90
20524;DHT22;10420;48.542;12.270;2022-07-03T10:41:33;29.90;99.90
20524;DHT22;10420;48.542;12.270;2022-07-03T10:46:53;30.40;98.20
20524;DHT22;10420;48.542;12.270;2022-07-03T10:51:59;29.50;99.50
20524;DHT22;10420;48.542;12.270;2022-07-03T10:57:07;30.20;99.90
20524;DHT22;10420;48.542;12.270;2022-07-03T11:02:26;30.60;98.60
20524;DHT22;10420;48.542;12.270;2022-07-03T11:34:06;30.40;96.90
20524;DHT22;10420;48.542;12.270;2022-07-03T11:39:12;30.60;95.40
20524;DHT22;10420;48.542;12.270;2022-07-03T11:44:18;30.30;97.50
20524;DHT22;10420;48.542;12.270;2022-07-03T11:49:23;30.30;97.70
20524;DHT22;10420;48.542;12.270;2022-07-03T11:54:29;30.40;96.60
20524;DHT22;10420;48.542;12.270;2022-07-03T11:59:30;30.70;96.90
20524;DHT22;10420;48.542;12.270;2022-07-03T12:04:32;30.30;94.90
20524;DHT22;10420;48.542;12.270;2022-07-03T12:09:36;30.20;94.70
20524;DHT22;10420;48.542;12.270;2022-07-03T12:19:52;30.40;95.50
20524;DHT22;10420;48.542;12.270;2022-07-03T12:25:09;30.30;94.10
20524;DHT22;10420;48.542;12.270;2022-07-03T12:30:21;30.20;97.20
20524;DHT22;10420;48.542;12.270;2022-07-03T12:35:28;29.80;94.20
20524;DHT22;10420;48.542;12.270;2022-07-03T12:40:29;29.20;93.40
20524;DHT22;10420;48.542;12.270;2022-07-03T12:45:30;29.30;96.20
20524;DHT22;10420;48.542;12.270;2022-07-03T12:50:45;29.20;94.60
20524;DHT22;10420;48.542;12.270;2022-07-03T12:55:45;29.30;95.20
20524;DHT22;10420;48.542;12.270;2022-07-03T13:00:46;29.20;93.00
20524;DHT22;10420;48.542;12.270;2022-07-03T13:05:49;29.20;94.10
20524;DHT22;10420;48.542;12.270;2022-07-03T13:10:58;29.10;93.10
20524;DHT22;10420;48.542;12.270;2022-07-03T13:15:59;28.90;92.20
20524;DHT22;10420;48.542;12.270;2022-07-03T13:20:59;29.00;92.90
20524;DHT22;10420;48.542;12.270;2022-07-03T13:26:00;29.10;94.20
20524;DHT22;10420;48.542;12.270;2022-07-03T13:31:01;29.20;94.10
20524;DHT22;10420;48.542;12.270;2022-07-03T13:36:02;29.00;94.70
20524;DHT22;10420;48.542;12.270;2022-07-03T13:41:02;29.10;94.00
20524;DHT22;10420;48.542;12.270;2022-07-03T13:46:03;28.80;92.50
20524;DHT22;10420;48.542;12.270;2022-07-03T13:51:04;28.80;94.40
20524;DHT22;10420;48.542;12.270;2022-07-03T13:56:05;29.00;92.60
20524;DHT22;10420;48.542;12.270;2022-07-03T14:01:05;28.90;93.40
20524;DHT22;10420;48.542;12.270;2022-07-03T14:06:06;29.00;93.10
20524;DHT22;10420;48.542;12.270;2022-07-03T14:11:07;29.00;93.60
20524;DHT22;10420;48.542;12.270;2022-07-03T14:16:07;29.00;93.10
20524;DHT22;10420;48.542;12.270;2022-07-03T14:21:08;29.00;94.80
20524;DHT22;10420;48.542;12.270;2022-07-03T14:26:09;28.90;92.90
20524;DHT22;10420;48.542;12.270;2022-07-03T14:31:10;28.80;93.10
20524;DHT22;10420;48.542;12.270;2022-07-03T14:36:25;28.60;92.40
20524;DHT22;10420;48.542;12.270;2022-07-03T14:41:26;28.90;91.30
20524;DHT22;10420;48.542;12.270;2022-07-03T14:46:26;28.80;91.50
20524;DHT22;10420;48.542;12.270;2022-07-03T14:51:27;28.70;90.20
20524;DHT22;10420;48.542;12.270;2022-07-03T14:56:29;28.60;90.40
20524;DHT22;10420;48.542;12.270;2022-07-03T15:01:31;28.50;91.80
20524;DHT22;10420;48.542;12.270;2022-07-03T15:06:32;28.50;90.80
20524;DHT22;10420;48.542;12.270;2022-07-03T15:11:39;28.50;91.00
20524;DHT22;10420;48.542;12.270;2022-07-03T15:16:59;28.60;89.90
20524;DHT22;10420;48.542;12.270;2022-07-03T15:22:03;28.50;90.70
20524;DHT22;10420;48.542;12.270;2022-07-03T15:27:05;28.50;91.00
20524;DHT22;10420;48.542;12.270;2022-07-03T15:32:06;28.50;88.20
20524;DHT22;10420;48.542;12.270;2022-07-03T15:47:57;28.50;91.30
20524;DHT22;10420;48.542;12.270;2022-07-03T15:53:01;28.40;90.80
20524;DHT22;10420;48.542;12.270;2022-07-03T15:58:04;28.20;91.60
20524;DHT22;10420;48.542;12.270;2022-07-03T16:03:27;28.20;89.90
20524;DHT22;10420;48.542;12.270;2022-07-03T16:08:28;27.80;90.60
20524;DHT22;10420;48.542;12.270;2022-07-03T16:13:29;27.90;91.10
20524;DHT22;10420;48.542;12.270;2022-07-03T16:18:33;27.90;89.60
20524;DHT22;10420;48.542;12.270;2022-07-03T16:23:34;27.90;90.10
20524;DHT22;10420;48.542;12.270;2022-07-03T16:28:36;27.60;92.60
20524;DHT22;10420;48.542;12.270;2022-07-03T16:33:41;27.80;90.70
20524;DHT22;10420;48.542;12.270;2022-07-03T16:38:47;27.70;90.80
20524;DHT22;10420;48.542;12.270;2022-07-03T16:43:53;27.60;93.00
20524;DHT22;10420;48.542;12.270;2022-07-03T16:48:57;27.40;93.80
20524;DHT22;10420;48.542;12.270;2022-07-03T16:54:00;27.20;93.70
20524;DHT22;10420;48.542;12.270;2022-07-03T16:59:02;27.00;94.50
20524;DHT22;10420;48.542;12.270;2022-07-03T17:04:04;27.20;92.90
20524;DHT22;10420;48.542;12.270;2022-07-03T17:09:07;27.10;93.70
20524;DHT22;10420;48.542;12.270;2022-07-03T17:14:13;26.90;95.80
20524;DHT22;10420;48.542;12.270;2022-07-03T17:19:23;26.60;94.40
20524;DHT22;10420;48.542;12.270;2022-07-03T17:24:29;26.50;97.20
20524;DHT22;10420;48.542;12.270;2022-07-03T17:29:44;26.50;96.70
20524;DHT22;10420;48.542;12.270;2022-07-03T17:34:49;26.40;95.80
20524;DHT22;10420;48.542;12.270;2022-07-03T17:39:51;26.10;97.20
20524;DHT22;10420;48.542;12.270;2022-07-03T17:44:54;25.90;96.30
20524;DHT22;10420;48.542;12.270;2022-07-03T17:49:58;25.80;99.70
20524;DHT22;10420;48.542;12.270;2022-07-03T17:55:00;25.70;97.60
20524;DHT22;10420;48.542;12.270;2022-07-03T18:00:11;25.50;98.20
20524;DHT22;10420;48.542;12.270;2022-07-03T18:05:13;25.20;99.90
20524;DHT22;10420;48.542;12.270;2022-07-03T18:10:19;25.10;99.30
20524;DHT22;10420;48.542;12.270;2022-07-03T18:15:31;25.00;98.40
20524;DHT22;10420;48.542;12.270;2022-07-03T18:20:35;24.70;99.90
20524;DHT22;10420;48.542;12.270;2022-07-03T18:25:36;24.20;99.90
20524;DHT22;10420;48.542;12.270;2022-07-03T18:30:42;24.30;99.90
20524;DHT22;10420;48.542;12.270;2022-07-03T18:35:43;23.90;99.90
20524;DHT22;10420;48.542;12.270;2022-07-03T18:40:45;23.70;99.90
20524;DHT22;10420;48.542;12.270;2022-07-03T18:45:46;23.50;99.90
20524;DHT22;10420;48.542;12.270;2022-07-03T18:50:50;23.20;99.90
20524;DHT22;10420;48.542;12.270;2022-07-03T18:55:53;23.00;99.90
20524;DHT22;10420;48.542;12.270;2022-07-03T19:01:01;22.80;99.90
20524;DHT22;10420;48.542;12.270;2022-07-03T19:06:06;22.40;99.90
20524;DHT22;10420;48.542;12.270;2022-07-03T19:11:09;22.40;99.90
20524;DHT22;10420;48.542;12.270;2022-07-03T19:16:15;22.00;99.90
20524;DHT22;10420;48.542;12.270;2022-07-03T19:21:16;22.00;99.90
20524;DHT22;10420;48.542;12.270;2022-07-03T19:26:17;21.90;99.90
20524;DHT22;10420;48.542;12.270;2022-07-03T19:31:18;21.70;99.90
20524;DHT22;10420;48.542;12.270;2022-07-03T19:36:19;21.50;99.90
20524;DHT22;10420;48.542;12.270;2022-07-03T19:41:22;21.30;99.90
20524;DHT22;10420;48.542;12.270;2022-07-03T19:46:23;21.30;99.90
20524;DHT22;10420;48.542;12.270;2022-07-03T19:51:24;21.10;99.90
20524;DHT22;10420;48.542;12.270;2022-07-03T19:56:25;20.90;99.90
20524;DHT22;10420;48.542;12.270;2022-07-03T20:01:26;20.80;99.90
20524;DHT22;10420;48.542;12.270;2022-07-03T20:06:27;20.60;99.90
20524;DHT22;10420;48.542;12.270;2022-07-03T20:11:27;20.60;99.90
20524;DHT22;10420;48.542;12.270;2022-07-03T20:16:30;20.60;99.90
20524;DHT22;10420;48.542;12.270;2022-07-03T20:21:30;20.30;99.90
20524;DHT22;10420;48.542;12.270;2022-07-03T20:26:31;20.20;99.90
20524;DHT22;10420;48.542;12.270;2022-07-03T20:31:31;20.00;99.90
20524;DHT22;10420;48.542;12.270;2022-07-03T20:36:32;20.00;99.90
20524;DHT22;10420;48.542;12.270;2022-07-03T20:41:34;19.80;99.90
20524;DHT22;10420;48.542;12.270;2022-07-03T20:46:34;19.60;99.90
20524;DHT22;10420;48.542;12.270;2022-07-03T20:51:35;19.60;99.90
20524;DHT22;10420;48.542;12.270;2022-07-03T20:56:36;19.40;99.90
20524;DHT22;10420;48.542;12.270;2022-07-03T21:01:36;19.30;99.90
20524;DHT22;10420;48.542;12.270;2022-07-03T21:06:37;19.30;99.90
20524;DHT22;10420;48.542;12.270;2022-07-03T21:11:38;19.20;99.90
20524;DHT22;10420;48.542;12.270;2022-07-03T21:16:41;19.10;99.90
20524;DHT22;10420;48.542;12.270;2022-07-03T21:21:44;19.00;99.90
20524;DHT22;10420;48.542;12.270;2022-07-03T21:26:49;19.00;99.90
20524;DHT22;10420;48.542;12.270;2022-07-03T21:31:52;18.90;99.90
20524;DHT22;10420;48.542;12.270;2022-07-03T21:36:53;18.90;99.90
20524;DHT22;10420;48.542;12.270;2022-07-03T21:41:56;18.80;99.90
20524;DHT22;10420;48.542;12.270;2022-07-03T21:46:57;18.70;99.90
20524;DHT22;10420;48.542;12.270;2022-07-03T21:51:58;18.60;99.90
20524;DHT22;10420;48.542;12.270;2022-07-03T21:56:58;18.50;99.90
20524;DHT22;10420;48.542;12.270;2022-07-03T22:01:59;18.50;99.90
20524;DHT22;10420;48.542;12.270;2022-07-03T22:07:00;18.50;99.90
20524;DHT22;10420;48.542;12.270;2022-07-03T22:12:01;18.40;99.90
20524;DHT22;10420;48.542;12.270;2022-07-03T22:17:21;18.30;99.90
20524;DHT22;10420;48.542;12.270;2022-07-03T22:22:25;18.20;99.90
20524;DHT22;10420;48.542;12.270;2022-07-03T22:27:26;18.20;99.90
20524;DHT22;10420;48.542;12.270;2022-07-03T22:32:27;18.10;99.90
20524;DHT22;10420;48.542;12.270;2022-07-03T22:37:28;17.90;99.90
20524;DHT22;10420;48.542;12.270;2022-07-03T22:42:28;18.00;99.90
20524;DHT22;10420;48.542;12.270;2022-07-03T22:47:29;18.00;99.90
20524;DHT22;10420;48.542;12.270;2022-07-03T22:52:30;17.90;99.90
20524;DHT22;10420;48.542;12.270;2022-07-03T22:57:30;17.80;99.90
20524;DHT22;10420;48.542;12.270;2022-07-03T23:02:31;17.80;99.90
20524;DHT22;10420;48.542;12.270;2022-07-03T23:07:32;17.80;99.90
20524;DHT22;10420;48.542;12.270;2022-07-03T23:12:32;17.70;99.90
20524;DHT22;10420;48.542;12.270;2022-07-03T23:17:33;17.70;99.90
20524;DHT22;10420;48.542;12.270;2022-07-03T23:22:33;17.70;99.90
20524;DHT22;10420;48.542;12.270;2022-07-03T23:27:34;17.70;99.90
20524;DHT22;10420;48.542;12.270;2022-07-03T23:32:35;17.70;99.90
20524;DHT22;10420;48.542;12.270;2022-07-03T23:37:35;17.70;99.90
20524;DHT22;10420;48.542;12.270;2022-07-03T23:42:36;17.60;99.90
20524;DHT22;10420;48.542;12.270;2022-07-03T23:47:37;17.60;99.90
20524;DHT22;10420;48.542;12.270;2022-07-03T23:52:38;17.60;99.90
20524;DHT22;10420;48.542;12.270;2022-07-03T23:57:40;17.60;99.90
